sensor_id;sensor_type;location;lat;lon;timestamp;temperature;humidity
54898;DHT22;40800;52.704;6.398;2024-01-30T00:00:07;8.00;99.90
54898;DHT22;40800;52.704;6.398;2024-01-30T00:02:33;8.00;99.90
54898;DHT22;40800;52.704;6.398;2024-01-30T00:04:59;8.20;99.90
54898;DHT22;40800;52.704;6.398;2024-01-30T00:07:25;8.00;99.90
54898;DHT22;40800;52.704;6.398;2024-01-30T00:09:50;8.20;99.90
54898;DHT22;40800;52.704;6.398;2024-01-30T00:12:16;8.00;99.90
54898;DHT22;40800;52.704;6.398;2024-01-30T00:14:42;8.20;99.90
54898;DHT22;40800;52.704;6.398;2024-01-30T00:17:09;8.10;99.90
54898;DHT22;40800;52.704;6.398;2024-01-30T00:19:34;7.80;99.90
54898;DHT22;40800;52.704;6.398;2024-01-30T00:22:00;8.00;99.90
54898;DHT22;40800;52.704;6.398;2024-01-30T00:24:25;7.70;99.90
54898;DHT22;40800;52.704;6.398;2024-01-30T00:26:51;8.10;99.90
54898;DHT22;40800;52.704;6.398;2024-01-30T00:29:17;8.00;99.90
54898;DHT22;40800;52.704;6.398;2024-01-30T00:31:45;8.00;99.90
54898;DHT22;40800;52.704;6.398;2024-01-30T00:34:11;7.80;99.90
54898;DHT22;40800;52.704;6.398;2024-01-30T00:36:37;7.90;99.90
54898;DHT22;40800;52.704;6.398;2024-01-30T00:39:03;7.60;99.90
54898;DHT22;40800;52.704;6.398;2024-01-30T00:41:31;7.60;99.90
54898;DHT22;40800;52.704;6.398;2024-01-30T00:43:57;7.90;99.90
54898;DHT22;40800;52.704;6.398;2024-01-30T00:46:23;7.80;99.90
54898;DHT22;40800;52.704;6.398;2024-01-30T00:48:48;7.80;99.90
54898;DHT22;40800;52.704;6.398;2024-01-30T00:51:14;7.90;99.90
54898;DHT22;40800;52.704;6.398;2024-01-30T00:53:40;7.80;99.90
54898;DHT22;40800;52.704;6.398;2024-01-30T00:56:07;7.80;99.90
54898;DHT22;40800;52.704;6.398;2024-01-30T00:58:33;7.40;99.90
54898;DHT22;40800;52.704;6.398;2024-01-30T01:00:59;7.50;99.90
54898;DHT22;40800;52.704;6.398;2024-01-30T01:03:24;7.70;99.90
54898;DHT22;40800;52.704;6.398;2024-01-30T01:05:50;7.40;99.90
54898;DHT22;40800;52.704;6.398;2024-01-30T01:08:15;7.60;99.90
54898;DHT22;40800;52.704;6.398;2024-01-30T01:10:41;7.50;99.90
54898;DHT22;40800;52.704;6.398;2024-01-30T01:13:06;7.60;99.90
54898;DHT22;40800;52.704;6.398;2024-01-30T01:15:32;7.80;99.90
54898;DHT22;40800;52.704;6.398;2024-01-30T01:17:57;7.50;99.90
54898;DHT22;40800;52.704;6.398;2024-01-30T01:20:23;8.00;99.90
54898;DHT22;40800;52.704;6.398;2024-01-30T01:22:49;7.80;99.90
54898;DHT22;40800;52.704;6.398;2024-01-30T01:25:14;7.80;99.90
54898;DHT22;40800;52.704;6.398;2024-01-30T01:27:40;8.00;99.90
54898;DHT22;40800;52.704;6.398;2024-01-30T01:30:10;8.00;99.90
54898;DHT22;40800;52.704;6.398;2024-01-30T01:32:37;7.90;99.90
54898;DHT22;40800;52.704;6.398;2024-01-30T01:35:04;7.60;99.90
54898;DHT22;40800;52.704;6.398;2024-01-30T01:37:31;8.10;99.90
54898;DHT22;40800;52.704;6.398;2024-01-30T01:39:56;7.60;99.90
54898;DHT22;40800;52.704;6.398;2024-01-30T01:42:22;8.00;99.90
54898;DHT22;40800;52.704;6.398;2024-01-30T01:44:47;7.80;99.90
54898;DHT22;40800;52.704;6.398;2024-01-30T01:47:14;7.90;99.90
54898;DHT22;40800;52.704;6.398;2024-01-30T01:49:39;7.80;99.90
54898;DHT22;40800;52.704;6.398;2024-01-30T01:52:06;7.70;99.90
54898;DHT22;40800;52.704;6.398;2024-01-30T01:54:32;8.30;99.90
54898;DHT22;40800;52.704;6.398;2024-01-30T01:56:59;8.30;99.90
54898;DHT22;40800;52.704;6.398;2024-01-30T01:59:25;7.90;99.90
54898;DHT22;40800;52.704;6.398;2024-01-30T02:01:52;8.20;99.90
54898;DHT22;40800;52.704;6.398;2024-01-30T02:04:18;7.90;99.90
54898;DHT22;40800;52.704;6.398;2024-01-30T02:06:44;8.20;99.90
54898;DHT22;40800;52.704;6.398;2024-01-30T02:09:10;8.40;99.90
54898;DHT22;40800;52.704;6.398;2024-01-30T02:11:36;8.40;99.90
54898;DHT22;40800;52.704;6.398;2024-01-30T02:14:05;8.20;99.90
54898;DHT22;40800;52.704;6.398;2024-01-30T02:16:31;8.50;99.90
54898;DHT22;40800;52.704;6.398;2024-01-30T02:18:57;8.20;99.90
54898;DHT22;40800;52.704;6.398;2024-01-30T02:21:22;8.20;99.90
54898;DHT22;40800;52.704;6.398;2024-01-30T02:23:48;8.30;99.90
54898;DHT22;40800;52.704;6.398;2024-01-30T02:26:14;8.20;99.90
54898;DHT22;40800;52.704;6.398;2024-01-30T02:28:40;8.40;99.90
54898;DHT22;40800;52.704;6.398;2024-01-30T02:31:05;8.20;99.90
54898;DHT22;40800;52.704;6.398;2024-01-30T02:33:31;8.40;99.90
54898;DHT22;40800;52.704;6.398;2024-01-30T02:35:57;8.50;99.90
54898;DHT22;40800;52.704;6.398;2024-01-30T02:38:23;8.40;99.90
54898;DHT22;40800;52.704;6.398;2024-01-30T02:40:49;8.10;99.90
54898;DHT22;40800;52.704;6.398;2024-01-30T02:43:16;8.10;99.90
54898;DHT22;40800;52.704;6.398;2024-01-30T02:45:41;8.10;99.90
54898;DHT22;40800;52.704;6.398;2024-01-30T02:48:07;8.50;99.90
54898;DHT22;40800;52.704;6.398;2024-01-30T02:50:33;8.50;99.90
54898;DHT22;40800;52.704;6.398;2024-01-30T02:52:58;8.40;99.90
54898;DHT22;40800;52.704;6.398;2024-01-30T02:55:24;8.30;99.90
54898;DHT22;40800;52.704;6.398;2024-01-30T02:57:49;8.10;99.90
54898;DHT22;40800;52.704;6.398;2024-01-30T03:00:15;7.90;99.90
54898;DHT22;40800;52.704;6.398;2024-01-30T03:02:41;8.20;99.90
54898;DHT22;40800;52.704;6.398;2024-01-30T03:05:07;8.10;99.90
54898;DHT22;40800;52.704;6.398;2024-01-30T03:07:33;8.20;99.90
54898;DHT22;40800;52.704;6.398;2024-01-30T03:09:59;7.70;99.90
54898;DHT22;40800;52.704;6.398;2024-01-30T03:12:25;7.70;99.90
54898;DHT22;40800;52.704;6.398;2024-01-30T03:14:50;8.10;99.90
54898;DHT22;40800;52.704;6.398;2024-01-30T03:17:16;7.60;99.90
54898;DHT22;40800;52.704;6.398;2024-01-30T03:19:41;7.80;99.90
54898;DHT22;40800;52.704;6.398;2024-01-30T03:22:07;8.10;99.90
54898;DHT22;40800;52.704;6.398;2024-01-30T03:24:33;7.90;99.90
54898;DHT22;40800;52.704;6.398;2024-01-30T03:26:58;7.90;99.90
54898;DHT22;40800;52.704;6.398;2024-01-30T03:29:24;8.10;99.90
54898;DHT22;40800;52.704;6.398;2024-01-30T03:31:49;7.60;99.90
54898;DHT22;40800;52.704;6.398;2024-01-30T03:34:15;8.10;99.90
54898;DHT22;40800;52.704;6.398;2024-01-30T03:36:41;7.70;99.90
54898;DHT22;40800;52.704;6.398;2024-01-30T03:39:06;8.20;99.90
54898;DHT22;40800;52.704;6.398;2024-01-30T03:41:32;8.00;99.90
54898;DHT22;40800;52.704;6.398;2024-01-30T03:43:58;7.90;99.90
54898;DHT22;40800;52.704;6.398;2024-01-30T03:46:23;7.80;99.90
54898;DHT22;40800;52.704;6.398;2024-01-30T03:48:49;7.90;99.90
54898;DHT22;40800;52.704;6.398;2024-01-30T03:51:15;7.70;99.90
54898;DHT22;40800;52.704;6.398;2024-01-30T03:53:44;8.30;99.90
54898;DHT22;40800;52.704;6.398;2024-01-30T03:56:12;8.30;99.90
54898;DHT22;40800;52.704;6.398;2024-01-30T03:58:38;7.80;99.90
54898;DHT22;40800;52.704;6.398;2024-01-30T04:01:04;8.30;99.90
54898;DHT22;40800;52.704;6.398;2024-01-30T04:03:30;8.30;99.90
54898;DHT22;40800;52.704;6.398;2024-01-30T04:05:55;8.00;99.90
54898;DHT22;40800;52.704;6.398;2024-01-30T04:08:21;8.00;99.90
54898;DHT22;40800;52.704;6.398;2024-01-30T04:10:47;8.40;99.90
54898;DHT22;40800;52.704;6.398;2024-01-30T04:13:13;8.20;99.90
54898;DHT22;40800;52.704;6.398;2024-01-30T04:15:39;8.70;99.90
54898;DHT22;40800;52.704;6.398;2024-01-30T04:18:05;8.60;99.90
54898;DHT22;40800;52.704;6.398;2024-01-30T04:20:30;8.70;99.90
54898;DHT22;40800;52.704;6.398;2024-01-30T04:22:56;8.60;99.90
54898;DHT22;40800;52.704;6.398;2024-01-30T04:25:22;8.30;99.90
54898;DHT22;40800;52.704;6.398;2024-01-30T04:27:47;8.50;99.90
54898;DHT22;40800;52.704;6.398;2024-01-30T04:30:13;8.70;99.90
54898;DHT22;40800;52.704;6.398;2024-01-30T04:32:39;8.50;99.90
54898;DHT22;40800;52.704;6.398;2024-01-30T04:35:05;8.40;99.90
54898;DHT22;40800;52.704;6.398;2024-01-30T04:37:31;8.90;99.90
54898;DHT22;40800;52.704;6.398;2024-01-30T04:39:56;8.40;99.90
54898;DHT22;40800;52.704;6.398;2024-01-30T04:42:22;8.80;99.90
54898;DHT22;40800;52.704;6.398;2024-01-30T04:44:49;8.30;99.90
54898;DHT22;40800;52.704;6.398;2024-01-30T04:47:15;8.50;99.90
54898;DHT22;40800;52.704;6.398;2024-01-30T04:49:41;8.50;99.90
54898;DHT22;40800;52.704;6.398;2024-01-30T04:52:08;8.80;99.90
54898;DHT22;40800;52.704;6.398;2024-01-30T04:54:34;8.50;99.90
54898;DHT22;40800;52.704;6.398;2024-01-30T04:57:00;8.50;99.90
54898;DHT22;40800;52.704;6.398;2024-01-30T04:59:26;8.80;99.90
54898;DHT22;40800;52.704;6.398;2024-01-30T05:01:51;8.90;99.90
54898;DHT22;40800;52.704;6.398;2024-01-30T05:04:17;8.50;99.90
54898;DHT22;40800;52.704;6.398;2024-01-30T05:06:43;8.80;99.90
54898;DHT22;40800;52.704;6.398;2024-01-30T05:09:09;8.90;99.90
54898;DHT22;40800;52.704;6.398;2024-01-30T05:11:38;8.50;99.90
54898;DHT22;40800;52.704;6.398;2024-01-30T05:14:04;8.90;99.90
54898;DHT22;40800;52.704;6.398;2024-01-30T05:16:31;9.00;99.90
54898;DHT22;40800;52.704;6.398;2024-01-30T05:18:56;9.00;99.90
54898;DHT22;40800;52.704;6.398;2024-01-30T05:21:22;8.60;99.90
54898;DHT22;40800;52.704;6.398;2024-01-30T05:23:47;9.00;99.90
54898;DHT22;40800;52.704;6.398;2024-01-30T05:26:13;8.70;99.90
54898;DHT22;40800;52.704;6.398;2024-01-30T05:28:38;8.90;99.90
54898;DHT22;40800;52.704;6.398;2024-01-30T05:31:04;8.70;99.90
54898;DHT22;40800;52.704;6.398;2024-01-30T05:33:29;9.00;99.90
54898;DHT22;40800;52.704;6.398;2024-01-30T05:35:55;8.80;99.90
54898;DHT22;40800;52.704;6.398;2024-01-30T05:38:20;9.10;99.90
54898;DHT22;40800;52.704;6.398;2024-01-30T05:40:46;9.00;99.90
54898;DHT22;40800;52.704;6.398;2024-01-30T05:43:12;8.80;99.90
54898;DHT22;40800;52.704;6.398;2024-01-30T05:45:38;9.20;99.90
54898;DHT22;40800;52.704;6.398;2024-01-30T05:48:04;9.20;99.90
54898;DHT22;40800;52.704;6.398;2024-01-30T05:50:30;9.20;99.90
54898;DHT22;40800;52.704;6.398;2024-01-30T05:52:55;9.30;99.90
54898;DHT22;40800;52.704;6.398;2024-01-30T05:55:21;9.00;99.90
54898;DHT22;40800;52.704;6.398;2024-01-30T05:57:46;9.30;99.90
54898;DHT22;40800;52.704;6.398;2024-01-30T06:00:12;9.00;99.90
54898;DHT22;40800;52.704;6.398;2024-01-30T06:02:38;9.30;99.90
54898;DHT22;40800;52.704;6.398;2024-01-30T06:05:04;9.30;99.90
54898;DHT22;40800;52.704;6.398;2024-01-30T06:07:30;9.30;99.90
54898;DHT22;40800;52.704;6.398;2024-01-30T06:09:55;9.00;99.90
54898;DHT22;40800;52.704;6.398;2024-01-30T06:12:21;9.30;99.90
54898;DHT22;40800;52.704;6.398;2024-01-30T06:14:46;9.40;99.90
54898;DHT22;40800;52.704;6.398;2024-01-30T06:17:12;9.30;99.90
54898;DHT22;40800;52.704;6.398;2024-01-30T06:19:40;9.10;99.90
54898;DHT22;40800;52.704;6.398;2024-01-30T06:22:07;9.10;99.90
54898;DHT22;40800;52.704;6.398;2024-01-30T06:24:32;9.10;99.90
54898;DHT22;40800;52.704;6.398;2024-01-30T06:26:59;9.20;99.90
54898;DHT22;40800;52.704;6.398;2024-01-30T06:29:24;9.20;99.90
54898;DHT22;40800;52.704;6.398;2024-01-30T06:31:52;9.00;99.90
54898;DHT22;40800;52.704;6.398;2024-01-30T06:34:17;9.30;99.90
54898;DHT22;40800;52.704;6.398;2024-01-30T06:36:43;9.00;99.90
54898;DHT22;40800;52.704;6.398;2024-01-30T06:39:08;9.10;99.90
54898;DHT22;40800;52.704;6.398;2024-01-30T06:41:34;9.30;99.90
54898;DHT22;40800;52.704;6.398;2024-01-30T06:44:01;9.40;99.90
54898;DHT22;40800;52.704;6.398;2024-01-30T06:46:27;9.20;99.90
54898;DHT22;40800;52.704;6.398;2024-01-30T06:48:52;9.40;99.90
54898;DHT22;40800;52.704;6.398;2024-01-30T06:51:18;9.10;99.90
54898;DHT22;40800;52.704;6.398;2024-01-30T06:53:44;9.10;99.90
54898;DHT22;40800;52.704;6.398;2024-01-30T06:56:09;9.30;99.90
54898;DHT22;40800;52.704;6.398;2024-01-30T06:58:35;9.20;99.90
54898;DHT22;40800;52.704;6.398;2024-01-30T07:01:00;9.30;99.90
54898;DHT22;40800;52.704;6.398;2024-01-30T07:03:27;9.50;99.90
54898;DHT22;40800;52.704;6.398;2024-01-30T07:05:52;9.50;99.90
54898;DHT22;40800;52.704;6.398;2024-01-30T07:08:18;9.30;99.90
54898;DHT22;40800;52.704;6.398;2024-01-30T07:10:44;9.50;99.90
54898;DHT22;40800;52.704;6.398;2024-01-30T07:13:12;9.30;99.90
54898;DHT22;40800;52.704;6.398;2024-01-30T07:15:38;9.30;99.90
54898;DHT22;40800;52.704;6.398;2024-01-30T07:18:05;9.30;99.90
54898;DHT22;40800;52.704;6.398;2024-01-30T07:20:31;9.40;99.90
54898;DHT22;40800;52.704;6.398;2024-01-30T07:23:00;9.40;99.90
54898;DHT22;40800;52.704;6.398;2024-01-30T07:25:25;9.50;99.90
54898;DHT22;40800;52.704;6.398;2024-01-30T07:27:53;9.30;99.90
54898;DHT22;40800;52.704;6.398;2024-01-30T07:30:19;9.60;99.90
54898;DHT22;40800;52.704;6.398;2024-01-30T07:32:46;9.40;99.90
54898;DHT22;40800;52.704;6.398;2024-01-30T07:35:13;9.50;99.90
54898;DHT22;40800;52.704;6.398;2024-01-30T07:37:38;9.70;99.90
54898;DHT22;40800;52.704;6.398;2024-01-30T07:40:05;9.60;99.90
54898;DHT22;40800;52.704;6.398;2024-01-30T07:42:30;9.70;99.90
54898;DHT22;40800;52.704;6.398;2024-01-30T07:44:56;9.50;99.90
54898;DHT22;40800;52.704;6.398;2024-01-30T07:47:21;9.40;99.90
54898;DHT22;40800;52.704;6.398;2024-01-30T07:49:47;9.50;99.90
54898;DHT22;40800;52.704;6.398;2024-01-30T07:52:13;9.70;99.90
54898;DHT22;40800;52.704;6.398;2024-01-30T07:54:38;9.70;99.90
54898;DHT22;40800;52.704;6.398;2024-01-30T07:57:04;9.60;99.90
54898;DHT22;40800;52.704;6.398;2024-01-30T07:59:30;9.70;99.90
54898;DHT22;40800;52.704;6.398;2024-01-30T08:01:55;9.60;99.90
54898;DHT22;40800;52.704;6.398;2024-01-30T08:04:21;9.60;99.90
54898;DHT22;40800;52.704;6.398;2024-01-30T08:06:46;9.70;99.90
54898;DHT22;40800;52.704;6.398;2024-01-30T08:09:12;9.90;99.90
54898;DHT22;40800;52.704;6.398;2024-01-30T08:11:38;9.80;99.90
54898;DHT22;40800;52.704;6.398;2024-01-30T08:14:03;9.80;99.90
54898;DHT22;40800;52.704;6.398;2024-01-30T08:16:29;9.70;99.90
54898;DHT22;40800;52.704;6.398;2024-01-30T08:18:54;10.00;99.90
54898;DHT22;40800;52.704;6.398;2024-01-30T08:21:22;9.70;99.90
54898;DHT22;40800;52.704;6.398;2024-01-30T08:23:48;10.10;99.90
54898;DHT22;40800;52.704;6.398;2024-01-30T08:26:14;10.00;99.90
54898;DHT22;40800;52.704;6.398;2024-01-30T08:28:39;10.10;99.90
54898;DHT22;40800;52.704;6.398;2024-01-30T08:31:05;9.80;99.90
54898;DHT22;40800;52.704;6.398;2024-01-30T08:33:30;10.00;99.90
54898;DHT22;40800;52.704;6.398;2024-01-30T08:35:56;9.90;99.90
54898;DHT22;40800;52.704;6.398;2024-01-30T08:38:21;10.00;99.90
54898;DHT22;40800;52.704;6.398;2024-01-30T08:40:47;10.20;99.90
54898;DHT22;40800;52.704;6.398;2024-01-30T08:43:12;10.10;99.90
54898;DHT22;40800;52.704;6.398;2024-01-30T08:45:38;10.40;99.90
54898;DHT22;40800;52.704;6.398;2024-01-30T08:48:04;10.40;99.90
54898;DHT22;40800;52.704;6.398;2024-01-30T08:50:29;10.40;99.90
54898;DHT22;40800;52.704;6.398;2024-01-30T08:52:55;10.20;99.90
54898;DHT22;40800;52.704;6.398;2024-01-30T08:55:21;10.30;99.90
54898;DHT22;40800;52.704;6.398;2024-01-30T08:57:47;10.40;99.90
54898;DHT22;40800;52.704;6.398;2024-01-30T09:00:13;10.30;99.90
54898;DHT22;40800;52.704;6.398;2024-01-30T09:02:39;10.50;99.90
54898;DHT22;40800;52.704;6.398;2024-01-30T09:05:04;10.60;99.90
54898;DHT22;40800;52.704;6.398;2024-01-30T09:07:30;10.60;99.90
54898;DHT22;40800;52.704;6.398;2024-01-30T09:09:55;10.60;99.90
54898;DHT22;40800;52.704;6.398;2024-01-30T09:12:21;10.70;99.90
54898;DHT22;40800;52.704;6.398;2024-01-30T09:14:47;10.50;99.90
54898;DHT22;40800;52.704;6.398;2024-01-30T09:17:12;10.60;99.90
54898;DHT22;40800;52.704;6.398;2024-01-30T09:19:38;11.00;99.90
54898;DHT22;40800;52.704;6.398;2024-01-30T09:22:04;11.00;99.90
54898;DHT22;40800;52.704;6.398;2024-01-30T09:24:29;10.80;99.90
54898;DHT22;40800;52.704;6.398;2024-01-30T09:26:55;10.90;99.90
54898;DHT22;40800;52.704;6.398;2024-01-30T09:29:21;10.90;99.90
54898;DHT22;40800;52.704;6.398;2024-01-30T09:31:47;11.20;99.90
54898;DHT22;40800;52.704;6.398;2024-01-30T09:34:13;11.10;99.90
54898;DHT22;40800;52.704;6.398;2024-01-30T09:36:39;11.30;99.90
54898;DHT22;40800;52.704;6.398;2024-01-30T09:39:04;11.10;99.90
54898;DHT22;40800;52.704;6.398;2024-01-30T09:41:32;11.30;99.90
54898;DHT22;40800;52.704;6.398;2024-01-30T09:44:00;11.40;99.90
54898;DHT22;40800;52.704;6.398;2024-01-30T09:46:28;11.20;99.90
54898;DHT22;40800;52.704;6.398;2024-01-30T09:48:57;11.50;99.90
54898;DHT22;40800;52.704;6.398;2024-01-30T09:51:24;11.40;99.90
54898;DHT22;40800;52.704;6.398;2024-01-30T09:53:50;11.40;99.90
54898;DHT22;40800;52.704;6.398;2024-01-30T09:56:16;11.60;99.90
54898;DHT22;40800;52.704;6.398;2024-01-30T09:58:42;11.60;99.90
54898;DHT22;40800;52.704;6.398;2024-01-30T10:01:08;11.50;99.90
54898;DHT22;40800;52.704;6.398;2024-01-30T10:03:33;11.50;99.90
54898;DHT22;40800;52.704;6.398;2024-01-30T10:06:00;11.50;99.90
54898;DHT22;40800;52.704;6.398;2024-01-30T10:08:26;11.60;99.90
54898;DHT22;40800;52.704;6.398;2024-01-30T10:10:52;11.80;99.90
54898;DHT22;40800;52.704;6.398;2024-01-30T10:13:18;11.80;99.90
54898;DHT22;40800;52.704;6.398;2024-01-30T10:15:44;11.70;99.90
54898;DHT22;40800;52.704;6.398;2024-01-30T10:18:10;11.70;99.90
54898;DHT22;40800;52.704;6.398;2024-01-30T10:20:37;11.60;99.90
54898;DHT22;40800;52.704;6.398;2024-01-30T10:23:03;12.00;99.90
54898;DHT22;40800;52.704;6.398;2024-01-30T10:25:30;12.00;99.90
54898;DHT22;40800;52.704;6.398;2024-01-30T10:27:56;12.00;99.90
54898;DHT22;40800;52.704;6.398;2024-01-30T10:30:22;11.80;99.90
54898;DHT22;40800;52.704;6.398;2024-01-30T10:32:48;11.90;99.90
54898;DHT22;40800;52.704;6.398;2024-01-30T10:35:15;12.20;99.90
54898;DHT22;40800;52.704;6.398;2024-01-30T10:37:43;12.10;99.90
54898;DHT22;40800;52.704;6.398;2024-01-30T10:40:13;12.20;99.90
54898;DHT22;40800;52.704;6.398;2024-01-30T10:42:42;12.30;99.90
54898;DHT22;40800;52.704;6.398;2024-01-30T10:45:10;12.10;99.90
54898;DHT22;40800;52.704;6.398;2024-01-30T10:47:54;12.30;99.90
54898;DHT22;40800;52.704;6.398;2024-01-30T10:50:24;12.20;99.90
54898;DHT22;40800;52.704;6.398;2024-01-30T10:52:50;12.20;99.90
54898;DHT22;40800;52.704;6.398;2024-01-30T10:55:16;12.10;99.90
54898;DHT22;40800;52.704;6.398;2024-01-30T10:57:43;12.40;99.90
54898;DHT22;40800;52.704;6.398;2024-01-30T11:00:11;12.30;99.90
54898;DHT22;40800;52.704;6.398;2024-01-30T11:02:42;12.40;99.90
54898;DHT22;40800;52.704;6.398;2024-01-30T11:05:09;12.40;99.90
54898;DHT22;40800;52.704;6.398;2024-01-30T11:07:35;12.70;99.90
54898;DHT22;40800;52.704;6.398;2024-01-30T11:10:03;12.60;99.90
54898;DHT22;40800;52.704;6.398;2024-01-30T11:12:33;12.60;99.90
54898;DHT22;40800;52.704;6.398;2024-01-30T11:15:07;12.80;99.90
54898;DHT22;40800;52.704;6.398;2024-01-30T11:20:16;12.90;99.90
54898;DHT22;40800;52.704;6.398;2024-01-30T11:22:44;13.10;99.90
54898;DHT22;40800;52.704;6.398;2024-01-30T11:25:14;13.00;99.90
54898;DHT22;40800;52.704;6.398;2024-01-30T11:27:41;13.00;99.90
54898;DHT22;40800;52.704;6.398;2024-01-30T11:30:07;13.20;99.90
54898;DHT22;40800;52.704;6.398;2024-01-30T11:32:33;13.10;99.90
54898;DHT22;40800;52.704;6.398;2024-01-30T11:34:59;13.10;99.90
54898;DHT22;40800;52.704;6.398;2024-01-30T11:37:25;13.20;99.90
54898;DHT22;40800;52.704;6.398;2024-01-30T11:39:53;13.20;99.90
54898;DHT22;40800;52.704;6.398;2024-01-30T11:42:19;13.10;99.90
54898;DHT22;40800;52.704;6.398;2024-01-30T11:44:48;13.00;99.90
54898;DHT22;40800;52.704;6.398;2024-01-30T11:47:14;13.40;99.90
54898;DHT22;40800;52.704;6.398;2024-01-30T11:49:40;13.20;99.90
54898;DHT22;40800;52.704;6.398;2024-01-30T11:52:06;13.10;99.90
54898;DHT22;40800;52.704;6.398;2024-01-30T11:54:32;13.20;99.90
54898;DHT22;40800;52.704;6.398;2024-01-30T11:56:57;13.20;99.90
54898;DHT22;40800;52.704;6.398;2024-01-30T11:59:24;13.10;99.90
54898;DHT22;40800;52.704;6.398;2024-01-30T12:01:51;13.30;99.90
54898;DHT22;40800;52.704;6.398;2024-01-30T12:04:17;13.30;99.90
54898;DHT22;40800;52.704;6.398;2024-01-30T12:06:43;13.40;99.90
54898;DHT22;40800;52.704;6.398;2024-01-30T12:09:09;13.50;99.90
54898;DHT22;40800;52.704;6.398;2024-01-30T12:11:44;13.50;99.90
54898;DHT22;40800;52.704;6.398;2024-01-30T12:14:11;13.50;99.90
54898;DHT22;40800;52.704;6.398;2024-01-30T12:16:37;13.50;99.90
54898;DHT22;40800;52.704;6.398;2024-01-30T12:19:02;13.40;99.90
54898;DHT22;40800;52.704;6.398;2024-01-30T12:21:29;13.30;99.90
54898;DHT22;40800;52.704;6.398;2024-01-30T12:23:56;13.10;99.90
54898;DHT22;40800;52.704;6.398;2024-01-30T12:26:23;13.00;99.90
54898;DHT22;40800;52.704;6.398;2024-01-30T12:28:49;13.00;99.90
54898;DHT22;40800;52.704;6.398;2024-01-30T12:31:17;13.00;99.90
54898;DHT22;40800;52.704;6.398;2024-01-30T12:33:43;12.90;99.90
54898;DHT22;40800;52.704;6.398;2024-01-30T12:36:08;13.00;99.90
54898;DHT22;40800;52.704;6.398;2024-01-30T12:38:34;13.10;99.90
54898;DHT22;40800;52.704;6.398;2024-01-30T12:41:00;13.00;99.90
54898;DHT22;40800;52.704;6.398;2024-01-30T12:43:25;12.90;99.90
54898;DHT22;40800;52.704;6.398;2024-01-30T12:45:53;12.80;99.90
54898;DHT22;40800;52.704;6.398;2024-01-30T12:48:18;12.60;99.90
54898;DHT22;40800;52.704;6.398;2024-01-30T12:50:44;12.60;99.90
54898;DHT22;40800;52.704;6.398;2024-01-30T12:53:09;12.70;99.90
54898;DHT22;40800;52.704;6.398;2024-01-30T12:55:35;12.60;99.90
54898;DHT22;40800;52.704;6.398;2024-01-30T12:58:01;12.60;99.90
54898;DHT22;40800;52.704;6.398;2024-01-30T13:00:27;12.50;99.90
54898;DHT22;40800;52.704;6.398;2024-01-30T13:02:52;12.50;99.90
54898;DHT22;40800;52.704;6.398;2024-01-30T13:05:18;12.50;99.90
54898;DHT22;40800;52.704;6.398;2024-01-30T13:07:44;12.50;99.90
54898;DHT22;40800;52.704;6.398;2024-01-30T13:10:09;12.60;99.90
54898;DHT22;40800;52.704;6.398;2024-01-30T13:12:35;12.70;99.90
54898;DHT22;40800;52.704;6.398;2024-01-30T13:15:01;12.50;99.90
54898;DHT22;40800;52.704;6.398;2024-01-30T13:17:28;12.60;99.90
54898;DHT22;40800;52.704;6.398;2024-01-30T13:19:54;12.40;99.90
54898;DHT22;40800;52.704;6.398;2024-01-30T13:22:20;12.30;99.90
54898;DHT22;40800;52.704;6.398;2024-01-30T13:24:49;12.20;99.90
54898;DHT22;40800;52.704;6.398;2024-01-30T13:27:15;12.20;99.90
54898;DHT22;40800;52.704;6.398;2024-01-30T13:29:41;12.10;99.90
54898;DHT22;40800;52.704;6.398;2024-01-30T13:32:06;11.90;99.90
54898;DHT22;40800;52.704;6.398;2024-01-30T13:34:32;11.90;99.90
54898;DHT22;40800;52.704;6.398;2024-01-30T13:36:58;11.80;99.90
54898;DHT22;40800;52.704;6.398;2024-01-30T13:39:23;11.70;99.90
54898;DHT22;40800;52.704;6.398;2024-01-30T13:41:49;11.80;99.90
54898;DHT22;40800;52.704;6.398;2024-01-30T13:44:15;11.70;99.90
54898;DHT22;40800;52.704;6.398;2024-01-30T13:46:42;11.80;99.90
54898;DHT22;40800;52.704;6.398;2024-01-30T13:49:08;11.70;99.90
54898;DHT22;40800;52.704;6.398;2024-01-30T13:51:34;11.70;99.90
54898;DHT22;40800;52.704;6.398;2024-01-30T13:53:59;11.60;99.90
54898;DHT22;40800;52.704;6.398;2024-01-30T13:56:25;11.80;99.90
54898;DHT22;40800;52.704;6.398;2024-01-30T13:58:52;11.60;99.90
54898;DHT22;40800;52.704;6.398;2024-01-30T14:01:18;11.60;99.90
54898;DHT22;40800;52.704;6.398;2024-01-30T14:03:44;11.70;99.90
54898;DHT22;40800;52.704;6.398;2024-01-30T14:06:11;11.60;99.90
54898;DHT22;40800;52.704;6.398;2024-01-30T14:08:37;11.50;99.90
54898;DHT22;40800;52.704;6.398;2024-01-30T14:11:02;11.50;99.90
54898;DHT22;40800;52.704;6.398;2024-01-30T14:13:29;11.50;99.90
54898;DHT22;40800;52.704;6.398;2024-01-30T14:15:56;11.50;99.90
54898;DHT22;40800;52.704;6.398;2024-01-30T14:18:22;11.70;99.90
54898;DHT22;40800;52.704;6.398;2024-01-30T14:20:47;11.60;99.90
54898;DHT22;40800;52.704;6.398;2024-01-30T14:23:13;11.60;99.90
54898;DHT22;40800;52.704;6.398;2024-01-30T14:25:38;11.60;99.90
54898;DHT22;40800;52.704;6.398;2024-01-30T14:28:04;11.50;99.90
54898;DHT22;40800;52.704;6.398;2024-01-30T14:30:30;11.40;99.90
54898;DHT22;40800;52.704;6.398;2024-01-30T14:32:56;11.40;99.90
54898;DHT22;40800;52.704;6.398;2024-01-30T14:35:21;11.40;99.90
54898;DHT22;40800;52.704;6.398;2024-01-30T14:37:47;11.40;99.90
54898;DHT22;40800;52.704;6.398;2024-01-30T14:40:13;11.30;99.90
54898;DHT22;40800;52.704;6.398;2024-01-30T14:42:38;11.30;99.90
54898;DHT22;40800;52.704;6.398;2024-01-30T14:45:05;11.20;99.90
54898;DHT22;40800;52.704;6.398;2024-01-30T14:47:31;11.30;99.90
54898;DHT22;40800;52.704;6.398;2024-01-30T14:49:57;11.20;99.90
54898;DHT22;40800;52.704;6.398;2024-01-30T14:52:23;11.20;99.90
54898;DHT22;40800;52.704;6.398;2024-01-30T14:54:48;11.10;99.90
54898;DHT22;40800;52.704;6.398;2024-01-30T14:57:14;11.10;99.90
54898;DHT22;40800;52.704;6.398;2024-01-30T14:59:40;11.00;99.90
54898;DHT22;40800;52.704;6.398;2024-01-30T15:02:06;11.00;99.90
54898;DHT22;40800;52.704;6.398;2024-01-30T15:04:32;11.00;99.90
54898;DHT22;40800;52.704;6.398;2024-01-30T15:06:57;10.60;99.90
54898;DHT22;40800;52.704;6.398;2024-01-30T15:09:23;10.50;99.90
54898;DHT22;40800;52.704;6.398;2024-01-30T15:11:51;11.00;99.90
54898;DHT22;40800;52.704;6.398;2024-01-30T15:14:17;10.60;99.90
54898;DHT22;40800;52.704;6.398;2024-01-30T15:16:43;10.50;99.90
54898;DHT22;40800;52.704;6.398;2024-01-30T15:19:09;10.60;99.90
54898;DHT22;40800;52.704;6.398;2024-01-30T15:21:34;10.90;99.90
54898;DHT22;40800;52.704;6.398;2024-01-30T15:24:00;10.60;99.90
54898;DHT22;40800;52.704;6.398;2024-01-30T15:26:26;10.50;99.90
54898;DHT22;40800;52.704;6.398;2024-01-30T15:28:51;10.60;99.90
54898;DHT22;40800;52.704;6.398;2024-01-30T15:31:17;11.00;99.90
54898;DHT22;40800;52.704;6.398;2024-01-30T15:33:43;10.80;99.90